Time;durP1;ratioP1;P1;durP2;ratioP2;P2;SDS_P1;SDS_P2;PMS_P1;PMS_P2;Temp;Humidity;BMP_temperature;BMP_pressure;BME280_temperature;BME280_humidity;BME280_pressure;Samples;Min_cycle;Max_cycle;Signal;HPM_P1;HPM_P2
2022/01/01 00:01:07;;;;;;;0.30;0.30;;;;;;;10.12;100.00;101059.19;5048400;28;20053;-79
2022/01/01 00:03:40;;;;;;;0.40;0.40;;;;;;;10.24;100.00;101058.94;5047685;28;20050;-78
2022/01/01 00:06:13;;;;;;;0.20;0.20;;;;;;;10.20;100.00;101066.81;5052964;28;20048;-80
2022/01/01 00:08:48;;;;;;;0.30;0.30;;;;;;;10.21;100.00;101074.72;5046023;28;20045;-79
2022/01/01 00:11:21;;;;;;;0.30;0.30;;;;;;;10.12;100.00;101080.94;5047883;28;20051;-78
2022/01/01 00:13:54;;;;;;;0.40;0.40;;;;;;;10.16;100.00;101087.47;5047154;28;20049;-80
2022/01/01 00:16:27;;;;;;;0.40;0.40;;;;;;;10.16;100.00;101092.91;5064126;28;20429;-79
2022/01/01 00:19:00;;;;;;;0.30;0.30;;;;;;;10.05;100.00;101092.06;5047368;28;20107;-80
2022/01/01 00:21:34;;;;;;;0.25;0.25;;;;;;;10.13;100.00;101096.19;5035049;28;20054;-78
2022/01/01 00:24:08;;;;;;;0.28;0.28;;;;;;;10.14;100.00;101098.63;5048762;28;20505;-79
2022/01/01 00:26:41;;;;;;;0.20;0.20;;;;;;;10.11;100.00;101093.72;5048779;28;20051;-78
2022/01/01 00:29:15;;;;;;;0.30;0.30;;;;;;;10.06;100.00;101101.84;5039052;28;20061;-80
2022/01/01 00:31:48;;;;;;;0.30;0.30;;;;;;;10.08;100.00;101104.31;5047048;28;20056;-79
2022/01/01 00:34:21;;;;;;;0.30;0.30;;;;;;;10.14;100.00;101111.41;5051635;28;20421;-80
2022/01/01 00:36:49;;;;;;;0.38;0.38;;;;;;;10.05;100.00;101111.09;5050162;28;20469;-79
2022/01/01 00:39:24;;;;;;;0.30;0.30;;;;;;;10.04;100.00;101104.03;5049169;28;20045;-78
2022/01/01 00:41:57;;;;;;;0.30;0.30;;;;;;;9.98;100.00;101116.75;5048030;28;20048;-78
2022/01/01 00:44:32;;;;;;;0.30;0.30;;;;;;;10.01;100.00;101124.41;5051693;28;20063;-79
2022/01/01 00:47:00;;;;;;;0.30;0.30;;;;;;;10.02;100.00;101119.78;5047459;28;20057;-79
2022/01/01 00:49:29;;;;;;;0.30;0.30;;;;;;;10.04;100.00;101121.16;5051054;28;20045;-79
2022/01/01 00:52:03;;;;;;;0.38;0.38;;;;;;;9.98;100.00;101127.63;5050657;28;20040;-79
2022/01/01 00:54:37;;;;;;;0.30;0.30;;;;;;;10.11;100.00;101133.69;5052511;28;20064;-80
2022/01/01 00:57:10;;;;;;;0.30;0.30;;;;;;;10.02;100.00;101138.81;5071486;28;20106;-79
2022/01/01 00:59:43;;;;;;;0.30;0.30;;;;;;;10.06;100.00;101136.41;5050825;28;20056;-79
2022/01/01 01:02:17;;;;;;;0.30;0.30;;;;;;;9.97;100.00;101127.91;5052108;28;20119;-79
2022/01/01 01:04:45;;;;;;;0.30;0.30;;;;;;;9.95;100.00;101130.91;5046243;28;20393;-80
2022/01/01 01:07:18;;;;;;;0.30;0.30;;;;;;;9.99;100.00;101147.50;5066704;28;20045;-79
2022/01/01 01:09:52;;;;;;;0.40;0.40;;;;;;;10.00;100.00;101141.81;5044510;28;20052;-79
2022/01/01 01:12:34;;;;;;;0.40;0.40;;;;;;;9.98;100.00;101152.09;5042111;28;20045;-79
2022/01/01 01:15:10;;;;;;;0.30;0.30;;;;;;;10.01;100.00;101146.16;5053597;28;20052;-78
2022/01/01 01:17:38;;;;;;;0.30;0.30;;;;;;;9.97;100.00;101146.94;5051339;28;20419;-79
2022/01/01 01:20:07;;;;;;;0.30;0.30;;;;;;;9.92;100.00;101138.78;5051982;28;20041;-78
2022/01/01 01:22:41;;;;;;;0.30;0.30;;;;;;;9.93;100.00;101145.84;5049756;28;20055;-79
2022/01/01 01:25:16;;;;;;;0.30;0.30;;;;;;;9.93;100.00;101146.66;5052164;28;20060;-79
2022/01/01 01:27:50;;;;;;;0.35;0.35;;;;;;;9.90;100.00;101141.75;5049737;28;20045;-81
2022/01/01 01:30:25;;;;;;;0.30;0.30;;;;;;;9.92;100.00;101146.94;5048123;28;20067;-78
2022/01/01 01:32:58;;;;;;;0.30;0.30;;;;;;;9.88;100.00;101141.19;5047801;28;20045;-79
2022/01/01 01:35:31;;;;;;;0.30;0.30;;;;;;;9.85;100.00;101150.69;5048834;28;20045;-79
2022/01/01 01:38:00;;;;;;;0.28;0.28;;;;;;;9.92;100.00;101144.22;5046254;28;20478;-78
2022/01/01 01:40:30;;;;;;;0.20;0.20;;;;;;;9.96;100.00;101148.84;5045155;28;20045;-79
2022/01/01 01:43:09;;;;;;;0.40;0.40;;;;;;;9.91;100.00;101148.81;5050584;28;20041;-78
2022/01/01 01:45:37;;;;;;;0.30;0.30;;;;;;;9.91;100.00;101154.25;5040350;28;20082;-79
2022/01/01 01:48:11;;;;;;;0.40;0.40;;;;;;;9.90;100.00;101147.16;5047970;28;20059;-78
2022/01/01 01:50:40;;;;;;;0.30;0.30;;;;;;;9.83;100.00;101147.44;5047625;28;20049;-79
2022/01/01 01:53:13;;;;;;;0.30;0.30;;;;;;;9.91;100.00;101145.28;5041629;28;20045;-78
2022/01/01 01:55:43;;;;;;;0.30;0.30;;;;;;;9.90;100.00;101149.91;5048961;28;20068;-78
2022/01/01 01:58:17;;;;;;;0.20;0.20;;;;;;;9.84;100.00;101148.25;5047807;28;20053;-78
2022/01/01 02:01:17;;;;;;;0.30;0.30;;;;;;;9.86;100.00;101146.09;5049906;28;20056;-79
2022/01/01 02:03:45;;;;;;;0.30;0.30;;;;;;;9.91;100.00;101159.69;5043749;28;20068;-78
2022/01/01 02:06:20;;;;;;;0.30;0.30;;;;;;;9.92;100.00;101160.53;5051949;28;20040;-78
2022/01/01 02:08:53;;;;;;;0.28;0.28;;;;;;;9.91;100.00;101161.59;5043791;28;20064;-78
2022/01/01 02:11:24;;;;;;;0.30;0.30;;;;;;;9.91;100.00;101164.31;5045691;28;20057;-78
2022/01/01 02:14:03;;;;;;;0.35;0.35;;;;;;;9.89;100.00;101153.72;5051540;28;20045;-77
2022/01/01 02:19:48;;;;;;;0.25;0.25;;;;;;;9.83;100.00;101150.16;4997039;28;20050;-78
2022/01/01 02:22:24;;;;;;;0.30;0.30;;;;;;;9.85;100.00;101166.19;4991973;28;20073;-78
2022/01/01 02:24:57;;;;;;;0.40;0.40;;;;;;;9.87;100.00;101167.56;5007941;28;20045;-78
2022/01/01 02:27:26;;;;;;;0.28;0.28;;;;;;;9.89;100.00;101172.75;5042088;28;20397;-78
2022/01/01 02:29:59;;;;;;;0.30;0.30;;;;;;;9.87;100.00;101183.06;5049357;28;20033;-77
2022/01/01 02:32:32;;;;;;;0.30;0.30;;;;;;;9.92;100.00;101174.94;5051884;28;20037;-78
2022/01/01 02:35:07;;;;;;;0.40;0.40;;;;;;;9.86;100.00;101174.09;5049817;28;20044;-77
2022/01/01 02:37:37;;;;;;;0.30;0.30;;;;;;;9.88;100.00;101185.50;5046207;28;20048;-78
2022/01/01 02:40:07;;;;;;;0.40;0.40;;;;;;;9.84;100.00;101195.25;5041912;28;20044;-78
2022/01/01 02:42:38;;;;;;;0.20;0.20;;;;;;;9.87;100.00;101202.06;5050282;28;20052;-77
2022/01/01 02:45:12;;;;;;;0.32;0.32;;;;;;;9.88;100.00;101212.69;5046725;28;20045;-79
2022/01/01 02:47:45;;;;;;;0.38;0.38;;;;;;;9.86;100.00;101216.78;5046393;28;20052;-78
2022/01/01 02:50:19;;;;;;;0.30;0.30;;;;;;;9.86;100.00;101214.06;5048055;28;20049;-78
2022/01/01 02:52:53;;;;;;;0.30;0.30;;;;;;;9.87;100.00;101218.38;5041418;28;20054;-78
2022/01/01 02:55:21;;;;;;;0.30;0.30;;;;;;;9.86;100.00;101208.63;5050585;28;20508;-78
2022/01/01 02:57:54;;;;;;;0.40;0.40;;;;;;;9.85;100.00;101198.81;5041508;28;20053;-78
2022/01/01 03:00:28;;;;;;;0.30;0.30;;;;;;;9.86;100.00;101195.84;5044878;28;20045;-77
2022/01/01 03:03:01;;;;;;;0.30;0.30;;;;;;;9.84;100.00;101197.16;5066918;28;20064;-77
2022/01/01 03:05:36;;;;;;;0.30;0.30;;;;;;;9.95;100.00;101196.16;5049058;28;20052;-78
2022/01/01 03:08:10;;;;;;;0.30;0.30;;;;;;;9.82;100.00;101194.72;5051405;28;20052;-78
2022/01/01 03:10:45;;;;;;;0.40;0.40;;;;;;;9.92;100.00;101207.56;5047768;28;20563;-78
2022/01/01 03:13:18;;;;;;;0.30;0.30;;;;;;;9.88;100.00;101206.44;5066278;28;20485;-77
2022/01/01 03:15:51;;;;;;;0.30;0.30;;;;;;;9.95;100.00;101198.88;5052878;28;20421;-78
2022/01/01 03:18:24;;;;;;;0.30;0.30;;;;;;;9.95;100.00;101206.22;5049658;28;20053;-77
2022/01/01 03:20:58;;;;;;;0.38;0.38;;;;;;;9.96;100.00;101205.94;5049471;28;20041;-77
2022/01/01 03:23:27;;;;;;;0.30;0.30;;;;;;;9.97;100.00;101198.59;5052532;28;20079;-79
2022/01/01 03:26:00;;;;;;;0.30;0.30;;;;;;;9.91;100.00;101214.06;5052973;28;20548;-78
2022/01/01 03:28:34;;;;;;;0.40;0.40;;;;;;;9.96;100.00;101210.59;5052279;28;20050;-78
2022/01/01 03:31:07;;;;;;;0.40;0.40;;;;;;;9.91;100.00;101219.50;5055829;28;20056;-78
2022/01/01 03:33:40;;;;;;;0.30;0.30;;;;;;;9.89;100.00;101221.69;5050120;28;20037;-78
2022/01/01 03:36:13;;;;;;;0.35;0.35;;;;;;;10.03;100.00;101203.81;5053402;28;20067;-78
2022/01/01 03:38:48;;;;;;;0.40;0.40;;;;;;;9.94;100.00;101202.66;5051887;28;20464;-77
2022/01/01 03:41:21;;;;;;;0.40;0.40;;;;;;;9.92;100.00;101215.72;5049557;28;20049;-78
2022/01/01 03:43:54;;;;;;;0.30;0.30;;;;;;;9.98;100.00;101222.81;5054921;28;20368;-76
2022/01/01 03:46:27;;;;;;;0.30;0.30;;;;;;;9.97;100.00;101223.91;5043057;28;20056;-77
2022/01/01 03:48:55;;;;;;;0.30;0.30;;;;;;;10.02;100.00;101231.28;5053078;28;20057;-76
2022/01/01 03:51:29;;;;;;;0.30;0.30;;;;;;;9.98;100.00;101230.16;5064007;28;20151;-77
2022/01/01 03:53:58;;;;;;;0.40;0.40;;;;;;;10.02;100.00;101232.06;5051656;28;20484;-78
2022/01/01 03:56:31;;;;;;;0.30;0.30;;;;;;;9.99;100.00;101238.03;5048427;28;20060;-78
2022/01/01 03:58:59;;;;;;;0.30;0.30;;;;;;;10.02;100.00;101236.72;5057453;28;20491;-77
2022/01/01 04:01:33;;;;;;;0.25;0.25;;;;;;;10.05;100.00;101249.78;5052788;28;20500;-78
2022/01/01 04:04:06;;;;;;;0.40;0.40;;;;;;;10.01;100.00;101248.66;5047981;28;20496;-77
2022/01/01 04:06:39;;;;;;;0.30;0.30;;;;;;;10.04;100.00;101248.97;5050773;28;20041;-78
2022/01/01 04:09:14;;;;;;;0.30;0.30;;;;;;;10.05;100.00;101241.63;5055635;28;20049;-77
2022/01/01 04:11:48;;;;;;;0.30;0.30;;;;;;;9.98;100.00;101241.84;5050455;28;20060;-78
2022/01/01 04:14:21;;;;;;;0.30;0.30;;;;;;;9.98;100.00;101241.03;5048902;28;20493;-78
2022/01/01 04:16:54;;;;;;;0.30;0.30;;;;;;;10.06;100.00;101248.69;5050789;28;20670;-78
2022/01/01 04:19:38;;;;;;;0.30;0.30;;;;;;;9.93;100.00;101241.00;5054421;28;20045;-77
2022/01/01 04:22:13;;;;;;;0.30;0.30;;;;;;;9.96;100.00;101240.50;5049343;28;20055;-77
2022/01/01 04:24:47;;;;;;;0.35;0.35;;;;;;;10.03;100.00;101257.38;5043876;28;20513;-78
2022/01/01 04:27:15;;;;;;;0.32;0.32;;;;;;;10.04;100.00;101256.31;5047232;28;20051;-78
2022/01/01 04:29:49;;;;;;;0.30;0.30;;;;;;;10.01;100.00;101254.09;5051791;28;20041;-80
2022/01/01 04:32:22;;;;;;;0.40;0.30;;;;;;;9.97;100.00;101256.53;5051745;28;20049;-77
2022/01/01 04:34:55;;;;;;;0.30;0.30;;;;;;;10.02;100.00;101272.06;5050296;28;20037;-77
2022/01/01 04:37:28;;;;;;;0.30;0.30;;;;;;;9.95;100.00;101275.00;5049140;28;20057;-75
2022/01/01 04:39:59;;;;;;;0.30;0.30;;;;;;;10.03;100.00;101273.72;5044914;28;20576;-77
2022/01/01 04:42:32;;;;;;;0.30;0.30;;;;;;;10.02;100.00;101281.03;5049868;28;20060;-77
2022/01/01 04:45:06;;;;;;;0.30;0.30;;;;;;;9.94;100.00;101276.06;5046581;28;20045;-79
2022/01/01 04:47:39;;;;;;;0.40;0.40;;;;;;;9.98;100.00;101285.34;5055590;28;20056;-78
2022/01/01 04:50:08;;;;;;;0.30;0.30;;;;;;;10.02;100.00;101291.91;5047626;28;20048;-79
2022/01/01 04:52:43;;;;;;;0.40;0.40;;;;;;;10.08;100.00;101291.94;5049370;28;20048;-79
2022/01/01 04:55:17;;;;;;;0.30;0.30;;;;;;;10.13;100.00;101297.44;5048208;28;20397;-79
2022/01/01 04:57:45;;;;;;;0.30;0.30;;;;;;;10.01;100.00;101303.03;5045772;28;20048;-78
2022/01/01 05:00:18;;;;;;;0.38;0.38;;;;;;;10.09;100.00;101299.84;5044008;28;20056;-79
2022/01/01 05:02:52;;;;;;;0.32;0.32;;;;;;;9.96;100.00;101289.44;5044915;28;20056;-78
2022/01/01 05:05:25;;;;;;;0.20;0.20;;;;;;;10.01;100.00;101297.59;5049433;28;20485;-80
2022/01/01 05:07:59;;;;;;;0.40;0.40;;;;;;;9.94;100.00;101291.56;5050762;28;20064;-78
2022/01/01 05:10:28;;;;;;;0.40;0.40;;;;;;;9.98;100.00;101290.78;5050007;28;20544;-78
2022/01/01 05:13:01;;;;;;;0.30;0.30;;;;;;;10.03;100.00;101295.47;5054267;28;20044;-79
2022/01/01 05:15:30;;;;;;;0.30;0.30;;;;;;;9.92;100.00;101294.56;5053310;28;20720;-81
2022/01/01 05:18:03;;;;;;;0.32;0.32;;;;;;;9.95;100.00;101294.03;5049308;28;20045;-79
2022/01/01 05:20:31;;;;;;;0.30;0.30;;;;;;;9.95;100.00;101299.47;5054191;28;20048;-79
2022/01/01 05:23:04;;;;;;;0.40;0.40;;;;;;;9.98;100.00;101296.22;5048102;28;20485;-78
2022/01/01 05:25:39;;;;;;;0.40;0.40;;;;;;;9.86;100.00;101287.47;5044134;28;20053;-78
2022/01/01 05:28:12;;;;;;;0.30;0.30;;;;;;;9.98;100.00;101306.28;5051544;28;20050;-78
2022/01/01 05:30:45;;;;;;;0.30;0.30;;;;;;;9.94;100.00;101308.69;5046585;28;20049;-78
2022/01/01 05:33:18;;;;;;;0.30;0.30;;;;;;;9.91;100.00;101306.50;5049214;28;20048;-78
2022/01/01 05:35:52;;;;;;;0.40;0.40;;;;;;;9.94;100.00;101314.13;5044252;28;20050;-79
2022/01/01 05:38:25;;;;;;;0.30;0.30;;;;;;;9.97;100.00;101312.81;5038643;28;20810;-77
2022/01/01 05:40:55;;;;;;;0.40;0.40;;;;;;;10.02;100.00;101329.16;5045998;28;20046;-77
2022/01/01 05:43:28;;;;;;;0.30;0.30;;;;;;;9.92;100.00;101329.91;5055122;28;20049;-78
2022/01/01 05:46:01;;;;;;;0.30;0.30;;;;;;;9.94;100.00;101326.91;5051381;28;20037;-78
2022/01/01 05:48:35;;;;;;;0.30;0.30;;;;;;;9.88;100.00;101336.94;5052649;28;20041;-78
2022/01/01 05:51:08;;;;;;;0.30;0.30;;;;;;;9.91;100.00;101339.13;5048522;28;20033;-78
2022/01/01 05:53:37;;;;;;;0.40;0.40;;;;;;;9.97;100.00;101343.53;5043766;28;20393;-78
2022/01/01 05:56:11;;;;;;;0.30;0.30;;;;;;;9.88;100.00;101334.22;5049022;28;20758;-77
2022/01/01 05:58:45;;;;;;;0.30;0.30;;;;;;;9.96;100.00;101341.09;5047358;28;20064;-80
2022/01/01 06:01:13;;;;;;;0.40;0.40;;;;;;;9.85;100.00;101327.41;5050350;28;20044;-78
2022/01/01 06:03:41;;;;;;;0.45;0.40;;;;;;;9.95;100.00;101328.56;5044602;28;20063;-77
2022/01/01 06:06:14;;;;;;;0.32;0.32;;;;;;;9.95;100.00;101342.16;5050108;28;20060;-78
2022/01/01 06:08:47;;;;;;;0.30;0.30;;;;;;;9.87;100.00;101333.41;5045707;28;20880;-77
2022/01/01 06:11:22;;;;;;;0.32;0.32;;;;;;;9.90;100.00;101340.19;5049856;28;20052;-77
2022/01/01 06:13:55;;;;;;;0.47;0.40;;;;;;;9.92;100.00;101340.78;5047007;28;20382;-77
2022/01/01 06:16:28;;;;;;;0.40;0.40;;;;;;;9.86;100.00;101333.69;5045477;28;20048;-79
2022/01/01 06:18:56;;;;;;;0.40;0.40;;;;;;;9.91;100.00;101339.13;5046115;28;20081;-79
2022/01/01 06:21:29;;;;;;;0.43;0.43;;;;;;;9.97;100.00;101334.56;5049069;28;20051;-77
2022/01/01 06:24:03;;;;;;;0.30;0.30;;;;;;;9.86;100.00;101341.84;5047517;28;20056;-78
2022/01/01 06:26:37;;;;;;;0.25;0.25;;;;;;;9.82;100.00;101346.94;5059966;28;20044;-77
2022/01/01 06:29:10;;;;;;;0.40;0.40;;;;;;;9.85;100.00;101348.34;5046586;28;20044;-77
2022/01/01 06:31:44;;;;;;;0.50;0.50;;;;;;;9.85;100.00;101349.16;5045527;28;20063;-77
2022/01/01 06:34:17;;;;;;;0.40;0.40;;;;;;;9.90;100.00;101347.56;5051505;28;20421;-77
2022/01/01 06:36:51;;;;;;;0.40;0.40;;;;;;;10.01;100.00;101346.56;5053466;28;20044;-78
2022/01/01 06:39:24;;;;;;;0.40;0.40;;;;;;;9.94;100.00;101344.03;5042853;28;20056;-78
2022/01/01 06:41:59;;;;;;;0.30;0.30;;;;;;;10.02;100.00;101359.06;5042562;28;20044;-78
2022/01/01 06:44:32;;;;;;;0.40;0.40;;;;;;;9.96;100.00;101357.41;5043128;28;20417;-78
2022/01/01 06:47:05;;;;;;;0.40;0.40;;;;;;;9.94;100.00;101362.25;5052801;28;20477;-78
2022/01/01 06:49:38;;;;;;;0.30;0.30;;;;;;;9.92;100.00;101359.00;5042209;28;20068;-78
2022/01/01 06:52:11;;;;;;;0.40;0.40;;;;;;;9.92;100.00;101373.41;5044103;28;20060;-78
2022/01/01 06:54:44;;;;;;;0.40;0.40;;;;;;;10.03;100.00;101369.69;5043694;28;20417;-79
2022/01/01 06:57:19;;;;;;;0.30;0.30;;;;;;;9.90;100.00;101375.53;5038552;28;20041;-78
2022/01/01 06:59:52;;;;;;;0.40;0.40;;;;;;;9.95;100.00;101377.50;5054883;28;20045;-77
2022/01/01 07:02:25;;;;;;;0.40;0.40;;;;;;;10.02;100.00;101386.28;5046282;28;20053;-78
2022/01/01 07:04:58;;;;;;;0.30;0.30;;;;;;;10.05;100.00;101374.88;5049585;28;20129;-77
2022/01/01 07:07:32;;;;;;;0.30;0.30;;;;;;;10.01;100.00;101381.91;5049017;28;20049;-77
2022/01/01 07:10:06;;;;;;;0.30;0.30;;;;;;;9.92;100.00;101384.28;5050221;28;20055;-77
2022/01/01 07:12:36;;;;;;;0.40;0.40;;;;;;;10.02;100.00;101381.63;5053059;28;20053;-79
2022/01/01 07:15:10;;;;;;;0.40;0.40;;;;;;;9.97;100.00;101386.22;5047530;28;20049;-79
2022/01/01 07:17:45;;;;;;;0.30;0.30;;;;;;;10.04;100.00;101393.09;5046281;28;20045;-79
2022/01/01 07:20:13;;;;;;;0.30;0.30;;;;;;;10.13;100.00;101396.16;5039572;28;20060;-77
2022/01/01 07:22:47;;;;;;;0.30;0.30;;;;;;;10.04;100.00;101398.53;5045988;28;20045;-79
2022/01/01 07:25:20;;;;;;;0.38;0.38;;;;;;;9.99;100.00;101398.47;5057399;28;20052;-77
2022/01/01 07:27:54;;;;;;;0.30;0.30;;;;;;;9.96;100.00;101404.44;5047294;28;20508;-78
2022/01/01 07:30:23;;;;;;;0.40;0.40;;;;;;;10.00;100.00;101396.59;5046233;28;20057;-78
2022/01/01 07:32:56;;;;;;;0.30;0.30;;;;;;;10.01;100.00;101403.66;5041671;28;20041;-78
2022/01/01 07:35:29;;;;;;;0.40;0.40;;;;;;;9.97;100.00;101407.97;5047984;28;20053;-80
2022/01/01 07:38:03;;;;;;;0.40;0.40;;;;;;;9.97;100.00;101411.53;5041957;28;20504;-78
2022/01/01 07:40:34;;;;;;;0.30;0.30;;;;;;;10.04;100.00;101412.13;5039419;28;20051;-79
2022/01/01 07:43:13;;;;;;;0.40;0.40;;;;;;;10.04;100.00;101419.47;5041209;28;20053;-77
2022/01/01 07:45:46;;;;;;;0.30;0.30;;;;;;;9.97;100.00;101427.84;5044603;28;20071;-76
2022/01/01 07:48:20;;;;;;;0.38;0.38;;;;;;;10.00;100.00;101430.03;5048971;28;20124;-78
2022/01/01 07:50:53;;;;;;;0.38;0.38;;;;;;;10.03;100.00;101443.13;5044283;28;20055;-79
2022/01/01 07:53:26;;;;;;;0.40;0.40;;;;;;;10.03;100.00;101442.31;5052829;28;20053;-79
2022/01/01 07:55:54;;;;;;;0.30;0.30;;;;;;;9.97;100.00;101436.00;5064632;28;20053;-78
2022/01/01 07:58:24;;;;;;;0.40;0.40;;;;;;;10.05;100.00;101451.00;5045705;28;20052;-78
2022/01/01 08:00:57;;;;;;;0.40;0.40;;;;;;;9.96;100.00;101455.28;5056884;28;20041;-78
2022/01/01 08:03:30;;;;;;;0.30;0.30;;;;;;;10.04;100.00;101463.00;5045008;28;20071;-79
2022/01/01 08:06:03;;;;;;;0.30;0.30;;;;;;;9.95;100.00;101459.88;5048868;28;20060;-77
2022/01/01 08:08:37;;;;;;;0.40;0.40;;;;;;;10.01;100.00;101466.19;5051774;28;20045;-78
2022/01/01 08:11:10;;;;;;;0.30;0.30;;;;;;;10.07;100.00;101472.50;5043310;28;20041;-76
2022/01/01 08:13:44;;;;;;;0.40;0.40;;;;;;;9.99;100.00;101469.19;5041787;28;20049;-78
2022/01/01 08:16:17;;;;;;;0.30;0.30;;;;;;;10.06;100.00;101479.03;5045544;28;20045;-78
2022/01/01 08:18:51;;;;;;;0.30;0.30;;;;;;;10.10;100.00;101488.34;5046028;28;20053;-78
2022/01/01 08:21:24;;;;;;;0.30;0.30;;;;;;;10.14;100.00;101486.75;5044553;28;20060;-78
2022/01/01 08:23:57;;;;;;;0.38;0.38;;;;;;;10.12;100.00;101488.88;5041108;28;20056;-78
2022/01/01 08:26:30;;;;;;;0.40;0.40;;;;;;;10.05;100.00;101508.13;5064366;28;20049;-78
2022/01/01 08:29:04;;;;;;;0.35;0.35;;;;;;;10.00;100.00;101492.59;5046913;28;20605;-79
2022/01/01 08:31:38;;;;;;;0.30;0.30;;;;;;;10.15;100.00;101500.09;5037916;28;20048;-78
2022/01/01 08:34:11;;;;;;;0.40;0.40;;;;;;;10.07;100.00;101508.69;5040763;28;20046;-79
2022/01/01 08:36:44;;;;;;;0.30;0.30;;;;;;;10.13;100.00;101509.56;5043422;28;20049;-78
2022/01/01 08:39:17;;;;;;;0.30;0.30;;;;;;;10.17;100.00;101508.78;5042344;28;20417;-80
2022/01/01 08:41:51;;;;;;;0.30;0.30;;;;;;;10.13;100.00;101515.00;5045354;28;20052;-80
2022/01/01 08:44:25;;;;;;;0.40;0.40;;;;;;;10.11;100.00;101520.72;5047638;28;20523;-78
2022/01/01 08:46:59;;;;;;;0.40;0.40;;;;;;;10.17;100.00;101519.66;5045978;28;20045;-81
2022/01/01 08:49:27;;;;;;;0.30;0.30;;;;;;;10.15;100.00;101521.00;5043845;28;20060;-80
2022/01/01 08:51:56;;;;;;;0.40;0.40;;;;;;;10.09;100.00;101516.59;5045394;28;20048;-79
2022/01/01 08:54:29;;;;;;;0.30;0.30;;;;;;;10.07;100.00;101503.25;5043731;28;20052;-80
2022/01/01 08:56:57;;;;;;;0.30;0.30;;;;;;;10.09;100.00;101516.59;5045346;28;20036;-78
2022/01/01 08:59:31;;;;;;;0.38;0.38;;;;;;;10.21;100.00;101518.09;5043742;28;20056;-80
2022/01/01 09:02:05;;;;;;;0.40;0.40;;;;;;;10.27;100.00;101524.41;5044579;28;20055;-79
2022/01/01 09:04:38;;;;;;;0.32;0.32;;;;;;;10.30;100.00;101523.06;5035338;28;20054;-78
2022/01/01 09:07:12;;;;;;;0.38;0.38;;;;;;;10.29;100.00;101516.81;5042599;28;20523;-78
2022/01/01 09:09:40;;;;;;;0.20;0.20;;;;;;;10.29;100.00;101527.69;5039037;28;20053;-80
2022/01/01 09:12:14;;;;;;;0.35;0.35;;;;;;;10.21;100.00;101531.69;5041609;28;20041;-77
2022/01/01 09:14:48;;;;;;;0.35;0.35;;;;;;;10.19;100.00;101522.13;5043408;28;20057;-79
2022/01/01 09:17:21;;;;;;;0.40;0.40;;;;;;;10.17;100.00;101533.28;5035926;28;20049;-78
2022/01/01 09:19:55;;;;;;;0.40;0.40;;;;;;;10.15;100.00;101540.88;5040111;28;20080;-79
2022/01/01 09:22:29;;;;;;;0.30;0.30;;;;;;;10.19;100.00;101531.13;5034503;28;20056;-79
2022/01/01 09:25:02;;;;;;;0.30;0.30;;;;;;;10.14;100.00;101535.69;5038593;28;20052;-78
2022/01/01 09:27:30;;;;;;;0.40;0.40;;;;;;;10.24;100.00;101540.44;5041019;28;20049;-78
2022/01/01 09:30:06;;;;;;;0.40;0.40;;;;;;;10.28;100.00;101544.28;5040189;28;20050;-82
2022/01/01 09:32:39;;;;;;;0.40;0.40;;;;;;;10.28;100.00;101547.00;5038695;28;20394;-82
2022/01/01 09:35:14;;;;;;;0.40;0.40;;;;;;;10.22;100.00;101535.25;5042340;28;20667;-80
2022/01/01 09:37:47;;;;;;;0.50;0.50;;;;;;;10.27;100.00;101546.16;5033489;28;20053;-80
2022/01/01 09:40:20;;;;;;;0.40;0.40;;;;;;;10.27;100.00;101548.06;5037868;28;20127;-81
2022/01/01 09:42:50;;;;;;;0.40;0.40;;;;;;;10.33;100.00;101555.19;5051476;28;20045;-81
2022/01/01 09:45:20;;;;;;;1.00;0.40;;;;;;;10.27;100.00;101558.94;5044021;28;20052;-79
2022/01/01 09:47:54;;;;;;;0.40;0.40;;;;;;;10.35;100.00;101558.53;5039855;28;20049;-78
2022/01/01 09:50:22;;;;;;;0.40;0.40;;;;;;;10.35;100.00;101551.16;5044694;28;20056;-80
2022/01/01 09:52:55;;;;;;;0.30;0.30;;;;;;;10.45;100.00;101553.16;5042045;28;20528;-81
2022/01/01 09:55:29;;;;;;;0.40;0.40;;;;;;;10.51;100.00;101559.50;5047182;28;20049;-79
2022/01/01 09:58:02;;;;;;;0.32;0.32;;;;;;;10.47;100.00;101555.66;5046712;28;20041;-78
2022/01/01 10:00:36;;;;;;;0.40;0.40;;;;;;;10.58;100.00;101556.53;5045239;28;20064;-81
2022/01/01 10:03:05;;;;;;;0.38;0.38;;;;;;;10.72;100.00;101546.88;5038910;28;20072;-79
2022/01/01 10:05:57;;;;;;;0.38;0.38;;;;;;;10.70;100.00;101554.47;5043745;28;20128;-79
2022/01/01 10:08:31;;;;;;;0.40;0.40;;;;;;;10.73;100.00;101562.16;5056461;28;20051;-80
2022/01/01 10:11:04;;;;;;;0.30;0.30;;;;;;;10.75;100.00;101572.78;5036624;28;20063;-80
2022/01/01 10:13:40;;;;;;;0.40;0.40;;;;;;;10.63;100.00;101573.75;5041547;28;20040;-80
2022/01/01 10:16:11;;;;;;;0.40;0.40;;;;;;;10.63;100.00;101579.19;5045959;28;20512;-81
2022/01/01 10:18:46;;;;;;;0.30;0.30;;;;;;;10.58;100.00;101581.03;5041800;28;20046;-79
2022/01/01 10:21:16;;;;;;;0.40;0.40;;;;;;;10.61;100.00;101578.63;5049794;28;20053;-80
2022/01/01 10:23:45;;;;;;;0.40;0.40;;;;;;;10.54;100.00;101575.31;5052967;28;20052;-79
2022/01/01 10:29:14;;;;;;;0.30;0.30;;;;;;;10.55;100.00;101579.69;5044098;28;20045;-79
2022/01/01 10:31:58;;;;;;;0.30;0.30;;;;;;;10.46;100.00;101586.66;5044760;28;20049;-78
2022/01/01 10:34:35;;;;;;;0.35;0.35;;;;;;;10.55;100.00;101591.38;5042350;28;20052;-81
2022/01/01 10:37:08;;;;;;;0.40;0.40;;;;;;;10.56;100.00;101592.19;5039832;28;20061;-78
2022/01/01 10:39:48;;;;;;;0.38;0.38;;;;;;;10.61;100.00;101592.25;5046143;28;20049;-80
2022/01/01 10:42:23;;;;;;;0.40;0.40;;;;;;;10.55;100.00;101598.75;5053120;28;20048;-79
2022/01/01 10:44:54;;;;;;;0.47;0.47;;;;;;;10.52;100.00;101594.63;5046500;28;20056;-80
2022/01/01 10:47:32;;;;;;;0.50;0.50;;;;;;;10.52;100.00;101593.78;5043293;28;20053;-78
2022/01/01 10:50:17;;;;;;;0.35;0.35;;;;;;;10.58;100.00;101595.50;5043320;28;20048;-79
2022/01/01 10:52:50;;;;;;;0.50;0.50;;;;;;;10.53;100.00;101588.06;5048685;28;20470;-79
2022/01/01 10:55:24;;;;;;;0.40;0.40;;;;;;;10.48;100.00;101582.59;5046632;28;20553;-81
2022/01/01 10:57:58;;;;;;;0.30;0.30;;;;;;;10.44;100.00;101594.25;5045767;28;20057;-80
2022/01/01 11:00:31;;;;;;;0.45;0.45;;;;;;;10.43;100.00;101603.50;5050459;28;20045;-78
2022/01/01 11:03:09;;;;;;;0.55;0.55;;;;;;;10.46;100.00;101595.63;5051873;28;20041;-81
2022/01/01 11:05:42;;;;;;;0.50;0.50;;;;;;;10.54;100.00;101597.09;5042432;28;20790;-79
2022/01/01 11:08:15;;;;;;;0.50;0.50;;;;;;;10.54;100.00;101600.63;5046292;28;20492;-79
2022/01/01 11:10:49;;;;;;;0.40;0.40;;;;;;;10.48;100.00;101612.53;5045966;28;20044;-80
2022/01/01 11:13:22;;;;;;;0.40;0.40;;;;;;;10.50;100.00;101601.41;5059010;28;20058;-79
2022/01/01 11:15:56;;;;;;;0.30;0.30;;;;;;;10.44;100.00;101602.41;5045924;28;20044;-80
2022/01/01 11:18:26;;;;;;;0.50;0.50;;;;;;;10.54;100.00;101600.63;5045376;28;20049;-79
2022/01/01 11:20:56;;;;;;;0.45;0.45;;;;;;;10.51;100.00;101600.34;5044113;28;20044;-81
2022/01/01 11:23:31;;;;;;;0.40;0.40;;;;;;;10.53;100.00;101598.16;5050731;28;20496;-79
2022/01/01 11:26:04;;;;;;;0.40;0.40;;;;;;;10.51;100.00;101608.50;5045090;28;20048;-81
2022/01/01 11:28:32;;;;;;;0.40;0.40;;;;;;;10.53;100.00;101600.88;5043709;28;20405;-81
2022/01/01 11:31:09;;;;;;;0.30;0.30;;;;;;;10.54;100.00;101589.72;5047110;28;20472;-80
2022/01/01 11:33:50;;;;;;;0.40;0.40;;;;;;;10.63;100.00;101592.00;5048534;28;20053;-81
2022/01/01 11:36:25;;;;;;;0.40;0.40;;;;;;;10.58;100.00;101581.88;5046437;28;20053;-78
2022/01/01 11:38:59;;;;;;;0.40;0.40;;;;;;;10.59;100.00;101577.25;5044151;28;20049;-79
2022/01/01 11:41:39;;;;;;;0.40;0.40;;;;;;;10.59;100.00;101575.34;5046457;28;20530;-79
2022/01/01 11:44:29;;;;;;;0.50;0.47;;;;;;;10.60;100.00;101573.47;5030532;28;20059;-79
2022/01/01 11:47:05;;;;;;;0.50;0.50;;;;;;;10.49;100.00;101581.50;5028584;28;20456;-80
2022/01/01 11:49:36;;;;;;;0.40;0.40;;;;;;;10.51;100.00;101576.66;5030464;28;20055;-79
2022/01/01 11:52:09;;;;;;;0.40;0.40;;;;;;;10.57;100.00;101558.47;5032424;28;20041;-80
2022/01/01 11:54:43;;;;;;;0.40;0.40;;;;;;;10.60;100.00;101559.84;5029713;28;20645;-79